Terminal Aerodrome Forecast
Issued by NWS

Home | Current Version | Previous Version | Text Only | Print | Product List | Glossary Off
Versions: 1 2 3 4 5 6 7 8 9 10 11 12 13 14 15 16

385
FTUS43 KABR 041008 AAA
TAFPIR
TAF AMD
KPIR 041008Z 0410/0506 31014KT P6SM SCT150
     FM042100 17006KT P6SM OVC120=

USA.gov is the U.S. government's official web portal to all federal, state and local government web resources and services.